sensor_id;sensor_type;location;lat;lon;timestamp;P1;durP1;ratioP1;P2;durP2;ratioP2
13564;SDS011;6854;48.096;11.278;2023-05-07T07:28:07;5.33;;;3.27;;
13564;SDS011;6854;48.096;11.278;2023-05-07T08:24:57;10.60;;;2.87;;
13564;SDS011;6854;48.096;11.278;2023-05-07T08:33:58;6.93;;;3.47;;
13564;SDS011;6854;48.096;11.278;2023-05-07T08:39:41;4.90;;;3.00;;
13564;SDS011;6854;48.096;11.278;2023-05-07T08:42:48;4.10;;;3.20;;
13564;SDS011;6854;48.096;11.278;2023-05-07T08:46:13;5.68;;;2.92;;
13564;SDS011;6854;48.096;11.278;2023-05-07T08:58:36;5.65;;;3.08;;
13564;SDS011;6854;48.096;11.278;2023-05-07T09:03:57;3.90;;;3.05;;
13564;SDS011;6854;48.096;11.278;2023-05-07T10:14:04;3.35;;;2.28;;
13564;SDS011;6854;48.096;11.278;2023-05-07T12:00:36;3.85;;;2.75;;
13564;SDS011;6854;48.096;11.278;2023-05-07T12:03:17;4.18;;;2.50;;
13564;SDS011;6854;48.096;11.278;2023-05-07T12:05:49;4.88;;;2.60;;
13564;SDS011;6854;48.096;11.278;2023-05-07T12:08:15;4.85;;;2.88;;
13564;SDS011;6854;48.096;11.278;2023-05-07T12:10:42;4.20;;;2.40;;
13564;SDS011;6854;48.096;11.278;2023-05-07T12:13:19;3.53;;;2.63;;
13564;SDS011;6854;48.096;11.278;2023-05-07T12:15:46;4.78;;;2.60;;
13564;SDS011;6854;48.096;11.278;2023-05-07T12:18:12;4.32;;;2.55;;
13564;SDS011;6854;48.096;11.278;2023-05-07T12:20:38;3.92;;;2.40;;
13564;SDS011;6854;48.096;11.278;2023-05-07T12:23:05;5.32;;;2.42;;
13564;SDS011;6854;48.096;11.278;2023-05-07T12:25:31;5.05;;;2.72;;
13564;SDS011;6854;48.096;11.278;2023-05-07T12:27:59;4.75;;;2.72;;
13564;SDS011;6854;48.096;11.278;2023-05-07T12:30:25;5.47;;;3.03;;
13564;SDS011;6854;48.096;11.278;2023-05-07T12:32:54;6.20;;;3.30;;
13564;SDS011;6854;48.096;11.278;2023-05-07T12:35:28;6.40;;;3.40;;
13564;SDS011;6854;48.096;11.278;2023-05-07T12:37:54;4.95;;;2.80;;
13564;SDS011;6854;48.096;11.278;2023-05-07T12:40:20;3.67;;;2.72;;
13564;SDS011;6854;48.096;11.278;2023-05-07T12:42:47;5.13;;;2.90;;
13564;SDS011;6854;48.096;11.278;2023-05-07T12:45:19;4.03;;;2.50;;
13564;SDS011;6854;48.096;11.278;2023-05-07T12:47:46;3.72;;;2.47;;
13564;SDS011;6854;48.096;11.278;2023-05-07T12:50:12;7.38;;;3.65;;
13564;SDS011;6854;48.096;11.278;2023-05-07T12:52:39;5.13;;;3.50;;
13564;SDS011;6854;48.096;11.278;2023-05-07T12:55:05;5.93;;;2.75;;
13564;SDS011;6854;48.096;11.278;2023-05-07T12:57:37;3.72;;;2.80;;
13564;SDS011;6854;48.096;11.278;2023-05-07T13:00:04;4.90;;;3.30;;
13564;SDS011;6854;48.096;11.278;2023-05-07T13:02:38;3.97;;;3.08;;
13564;SDS011;6854;48.096;11.278;2023-05-07T13:05:05;4.18;;;2.90;;
13564;SDS011;6854;48.096;11.278;2023-05-07T13:07:32;3.85;;;3.00;;
13564;SDS011;6854;48.096;11.278;2023-05-07T13:09:58;4.07;;;2.38;;
13564;SDS011;6854;48.096;11.278;2023-05-07T13:12:24;5.32;;;2.70;;
13564;SDS011;6854;48.096;11.278;2023-05-07T13:14:51;4.05;;;2.53;;
13564;SDS011;6854;48.096;11.278;2023-05-07T13:17:18;3.67;;;2.50;;
13564;SDS011;6854;48.096;11.278;2023-05-07T13:19:44;4.80;;;2.90;;
13564;SDS011;6854;48.096;11.278;2023-05-07T13:22:10;3.47;;;2.50;;
13564;SDS011;6854;48.096;11.278;2023-05-07T13:24:38;4.82;;;2.40;;
13564;SDS011;6854;48.096;11.278;2023-05-07T13:27:06;4.50;;;2.35;;
13564;SDS011;6854;48.096;11.278;2023-05-07T13:29:32;5.75;;;2.80;;
13564;SDS011;6854;48.096;11.278;2023-05-07T13:32:00;3.67;;;2.65;;
13564;SDS011;6854;48.096;11.278;2023-05-07T13:34:27;5.40;;;2.70;;
13564;SDS011;6854;48.096;11.278;2023-05-07T13:36:53;5.55;;;2.40;;
13564;SDS011;6854;48.096;11.278;2023-05-07T13:39:21;4.15;;;2.78;;
13564;SDS011;6854;48.096;11.278;2023-05-07T13:41:47;3.33;;;2.60;;
13564;SDS011;6854;48.096;11.278;2023-05-07T13:44:13;4.97;;;2.40;;
13564;SDS011;6854;48.096;11.278;2023-05-07T13:46:39;3.78;;;2.22;;
13564;SDS011;6854;48.096;11.278;2023-05-07T13:49:05;2.75;;;2.28;;
13564;SDS011;6854;48.096;11.278;2023-05-07T13:51:32;6.70;;;2.75;;
13564;SDS011;6854;48.096;11.278;2023-05-07T13:53:58;5.20;;;2.60;;
13564;SDS011;6854;48.096;11.278;2023-05-07T13:56:26;3.60;;;2.38;;
13564;SDS011;6854;48.096;11.278;2023-05-07T13:58:53;4.15;;;2.70;;
13564;SDS011;6854;48.096;11.278;2023-05-07T14:01:19;2.90;;;2.10;;
13564;SDS011;6854;48.096;11.278;2023-05-07T14:03:45;4.30;;;2.33;;
13564;SDS011;6854;48.096;11.278;2023-05-07T14:06:11;11.50;;;2.60;;
13564;SDS011;6854;48.096;11.278;2023-05-07T14:08:40;4.22;;;2.53;;
13564;SDS011;6854;48.096;11.278;2023-05-07T14:11:06;2.67;;;2.17;;
13564;SDS011;6854;48.096;11.278;2023-05-07T14:13:32;3.45;;;2.38;;
13564;SDS011;6854;48.096;11.278;2023-05-07T14:15:59;5.45;;;2.38;;
13564;SDS011;6854;48.096;11.278;2023-05-07T14:18:25;6.07;;;2.55;;
13564;SDS011;6854;48.096;11.278;2023-05-07T14:20:52;4.32;;;2.38;;
13564;SDS011;6854;48.096;11.278;2023-05-07T14:23:19;5.07;;;2.60;;
13564;SDS011;6854;48.096;11.278;2023-05-07T14:25:50;4.53;;;2.70;;
13564;SDS011;6854;48.096;11.278;2023-05-07T14:28:16;3.22;;;1.98;;
13564;SDS011;6854;48.096;11.278;2023-05-07T14:30:42;3.28;;;2.20;;
13564;SDS011;6854;48.096;11.278;2023-05-07T14:33:08;3.35;;;2.15;;
13564;SDS011;6854;48.096;11.278;2023-05-07T14:35:34;3.50;;;2.30;;
13564;SDS011;6854;48.096;11.278;2023-05-07T14:38:00;5.85;;;2.83;;
13564;SDS011;6854;48.096;11.278;2023-05-07T14:40:26;4.63;;;2.80;;
13564;SDS011;6854;48.096;11.278;2023-05-07T14:42:52;5.40;;;3.22;;
13564;SDS011;6854;48.096;11.278;2023-05-07T14:45:22;3.80;;;2.67;;
13564;SDS011;6854;48.096;11.278;2023-05-07T14:47:51;4.77;;;3.37;;
13564;SDS011;6854;48.096;11.278;2023-05-07T14:50:17;5.00;;;3.20;;
13564;SDS011;6854;48.096;11.278;2023-05-07T14:52:44;5.83;;;3.10;;
13564;SDS011;6854;48.096;11.278;2023-05-07T14:55:10;4.47;;;3.07;;
13564;SDS011;6854;48.096;11.278;2023-05-07T14:57:39;5.83;;;3.20;;
13564;SDS011;6854;48.096;11.278;2023-05-07T15:00:05;8.50;;;3.47;;
13564;SDS011;6854;48.096;11.278;2023-05-07T15:02:32;5.87;;;3.80;;
13564;SDS011;6854;48.096;11.278;2023-05-07T15:04:58;6.43;;;3.50;;
13564;SDS011;6854;48.096;11.278;2023-05-07T15:07:24;5.17;;;2.90;;
13564;SDS011;6854;48.096;11.278;2023-05-07T15:09:50;5.37;;;3.07;;
13564;SDS011;6854;48.096;11.278;2023-05-07T15:12:18;6.00;;;3.43;;
13564;SDS011;6854;48.096;11.278;2023-05-07T15:14:44;5.93;;;3.80;;
13564;SDS011;6854;48.096;11.278;2023-05-07T15:17:10;4.50;;;3.70;;
13564;SDS011;6854;48.096;11.278;2023-05-07T15:19:37;6.87;;;3.93;;
13564;SDS011;6854;48.096;11.278;2023-05-07T15:22:03;4.87;;;3.60;;
13564;SDS011;6854;48.096;11.278;2023-05-07T15:24:29;4.57;;;3.70;;
13564;SDS011;6854;48.096;11.278;2023-05-07T15:26:56;6.63;;;3.97;;
13564;SDS011;6854;48.096;11.278;2023-05-07T15:29:42;6.23;;;3.70;;
13564;SDS011;6854;48.096;11.278;2023-05-07T15:32:08;5.33;;;3.50;;
13564;SDS011;6854;48.096;11.278;2023-05-07T15:34:35;6.70;;;3.60;;
13564;SDS011;6854;48.096;11.278;2023-05-07T15:37:01;3.73;;;3.20;;
13564;SDS011;6854;48.096;11.278;2023-05-07T15:39:27;7.47;;;3.63;;
13564;SDS011;6854;48.096;11.278;2023-05-07T15:42:02;5.43;;;3.83;;
13564;SDS011;6854;48.096;11.278;2023-05-07T15:44:29;5.70;;;3.50;;
13564;SDS011;6854;48.096;11.278;2023-05-07T15:46:58;6.33;;;3.70;;
13564;SDS011;6854;48.096;11.278;2023-05-07T15:49:24;4.77;;;3.20;;
13564;SDS011;6854;48.096;11.278;2023-05-07T15:51:50;5.73;;;3.50;;
13564;SDS011;6854;48.096;11.278;2023-05-07T15:54:28;4.67;;;3.07;;
13564;SDS011;6854;48.096;11.278;2023-05-07T15:56:54;6.50;;;3.33;;
13564;SDS011;6854;48.096;11.278;2023-05-07T15:59:20;4.67;;;3.27;;
13564;SDS011;6854;48.096;11.278;2023-05-07T16:01:48;5.83;;;3.73;;
13564;SDS011;6854;48.096;11.278;2023-05-07T16:04:14;10.93;;;3.30;;
13564;SDS011;6854;48.096;11.278;2023-05-07T16:06:40;4.97;;;3.30;;
13564;SDS011;6854;48.096;11.278;2023-05-07T16:09:11;4.40;;;3.23;;
13564;SDS011;6854;48.096;11.278;2023-05-07T16:11:38;6.83;;;2.97;;
13564;SDS011;6854;48.096;11.278;2023-05-07T16:14:04;6.00;;;2.97;;
13564;SDS011;6854;48.096;11.278;2023-05-07T16:16:34;5.33;;;3.00;;
13564;SDS011;6854;48.096;11.278;2023-05-07T16:19:02;7.70;;;3.23;;
13564;SDS011;6854;48.096;11.278;2023-05-07T16:21:28;7.73;;;3.10;;
13564;SDS011;6854;48.096;11.278;2023-05-07T16:23:57;5.47;;;3.20;;
13564;SDS011;6854;48.096;11.278;2023-05-07T16:26:24;4.80;;;3.30;;
13564;SDS011;6854;48.096;11.278;2023-05-07T16:28:50;4.30;;;3.17;;
13564;SDS011;6854;48.096;11.278;2023-05-07T16:31:17;6.27;;;3.43;;
13564;SDS011;6854;48.096;11.278;2023-05-07T16:33:43;4.90;;;3.10;;
13564;SDS011;6854;48.096;11.278;2023-05-07T16:36:09;5.70;;;2.80;;
13564;SDS011;6854;48.096;11.278;2023-05-07T16:38:35;3.40;;;2.67;;
13564;SDS011;6854;48.096;11.278;2023-05-07T16:41:02;4.23;;;2.87;;
13564;SDS011;6854;48.096;11.278;2023-05-07T16:43:31;4.53;;;3.20;;
13564;SDS011;6854;48.096;11.278;2023-05-07T16:45:59;6.10;;;3.00;;
13564;SDS011;6854;48.096;11.278;2023-05-07T16:48:25;3.80;;;3.00;;
13564;SDS011;6854;48.096;11.278;2023-05-07T16:50:51;5.00;;;2.60;;
13564;SDS011;6854;48.096;11.278;2023-05-07T16:53:20;4.53;;;2.97;;
13564;SDS011;6854;48.096;11.278;2023-05-07T16:55:46;5.90;;;2.63;;
13564;SDS011;6854;48.096;11.278;2023-05-07T16:58:12;4.33;;;2.87;;
13564;SDS011;6854;48.096;11.278;2023-05-07T17:00:39;4.03;;;2.90;;
13564;SDS011;6854;48.096;11.278;2023-05-07T17:03:05;4.57;;;2.80;;
13564;SDS011;6854;48.096;11.278;2023-05-07T17:05:31;3.43;;;2.40;;
13564;SDS011;6854;48.096;11.278;2023-05-07T17:07:57;4.83;;;2.87;;
13564;SDS011;6854;48.096;11.278;2023-05-07T17:10:23;9.97;;;2.80;;
13564;SDS011;6854;48.096;11.278;2023-05-07T17:12:49;3.17;;;2.40;;
13564;SDS011;6854;48.096;11.278;2023-05-07T17:15:16;3.20;;;2.13;;
13564;SDS011;6854;48.096;11.278;2023-05-07T17:17:42;5.60;;;2.30;;
13564;SDS011;6854;48.096;11.278;2023-05-07T17:20:08;3.63;;;2.40;;
13564;SDS011;6854;48.096;11.278;2023-05-07T17:22:34;6.40;;;2.10;;
13564;SDS011;6854;48.096;11.278;2023-05-07T17:25:01;3.50;;;2.30;;
13564;SDS011;6854;48.096;11.278;2023-05-07T17:27:29;5.57;;;2.03;;
13564;SDS011;6854;48.096;11.278;2023-05-07T17:29:56;3.97;;;2.10;;
13564;SDS011;6854;48.096;11.278;2023-05-07T17:32:23;4.70;;;2.40;;
13564;SDS011;6854;48.096;11.278;2023-05-07T17:34:50;3.40;;;2.43;;
13564;SDS011;6854;48.096;11.278;2023-05-07T17:37:16;4.93;;;2.10;;
13564;SDS011;6854;48.096;11.278;2023-05-07T17:39:42;4.37;;;2.20;;
13564;SDS011;6854;48.096;11.278;2023-05-07T17:42:08;6.60;;;2.40;;
13564;SDS011;6854;48.096;11.278;2023-05-07T17:44:34;4.57;;;2.70;;
13564;SDS011;6854;48.096;11.278;2023-05-07T17:47:00;3.43;;;2.67;;
13564;SDS011;6854;48.096;11.278;2023-05-07T17:49:27;4.27;;;2.70;;
13564;SDS011;6854;48.096;11.278;2023-05-07T17:51:53;3.77;;;2.60;;
13564;SDS011;6854;48.096;11.278;2023-05-07T17:54:19;6.00;;;3.07;;
13564;SDS011;6854;48.096;11.278;2023-05-07T17:56:45;6.00;;;3.20;;
13564;SDS011;6854;48.096;11.278;2023-05-07T17:59:11;5.00;;;2.87;;
13564;SDS011;6854;48.096;11.278;2023-05-07T18:01:37;3.60;;;2.37;;
13564;SDS011;6854;48.096;11.278;2023-05-07T18:04:04;3.50;;;2.63;;
13564;SDS011;6854;48.096;11.278;2023-05-07T18:06:31;2.63;;;2.03;;
13564;SDS011;6854;48.096;11.278;2023-05-07T18:08:56;3.60;;;2.40;;
13564;SDS011;6854;48.096;11.278;2023-05-07T18:11:22;3.77;;;2.27;;
13564;SDS011;6854;48.096;11.278;2023-05-07T18:13:48;4.30;;;2.60;;
13564;SDS011;6854;48.096;11.278;2023-05-07T18:16:17;3.00;;;2.07;;
13564;SDS011;6854;48.096;11.278;2023-05-07T18:18:44;5.00;;;2.47;;
13564;SDS011;6854;48.096;11.278;2023-05-07T18:21:11;3.40;;;2.00;;
13564;SDS011;6854;48.096;11.278;2023-05-07T18:23:49;3.00;;;2.50;;
13564;SDS011;6854;48.096;11.278;2023-05-07T18:26:15;3.07;;;2.27;;
13564;SDS011;6854;48.096;11.278;2023-05-07T18:28:42;3.50;;;2.57;;
13564;SDS011;6854;48.096;11.278;2023-05-07T18:31:08;3.47;;;2.67;;
13564;SDS011;6854;48.096;11.278;2023-05-07T18:33:51;3.30;;;2.37;;
13564;SDS011;6854;48.096;11.278;2023-05-07T18:36:19;3.97;;;2.80;;
13564;SDS011;6854;48.096;11.278;2023-05-07T18:38:45;3.63;;;2.40;;
13564;SDS011;6854;48.096;11.278;2023-05-07T18:41:11;5.63;;;3.50;;
13564;SDS011;6854;48.096;11.278;2023-05-07T18:43:39;3.43;;;2.73;;
13564;SDS011;6854;48.096;11.278;2023-05-07T18:46:06;6.60;;;3.00;;
13564;SDS011;6854;48.096;11.278;2023-05-07T18:48:32;4.50;;;2.33;;
13564;SDS011;6854;48.096;11.278;2023-05-07T18:50:58;4.70;;;2.50;;
13564;SDS011;6854;48.096;11.278;2023-05-07T18:53:24;4.90;;;2.97;;
13564;SDS011;6854;48.096;11.278;2023-05-07T18:55:50;3.90;;;2.17;;
13564;SDS011;6854;48.096;11.278;2023-05-07T18:58:17;4.10;;;2.30;;
13564;SDS011;6854;48.096;11.278;2023-05-07T19:00:44;3.60;;;2.17;;
13564;SDS011;6854;48.096;11.278;2023-05-07T19:03:11;4.57;;;2.60;;
13564;SDS011;6854;48.096;11.278;2023-05-07T19:05:39;4.10;;;2.63;;
13564;SDS011;6854;48.096;11.278;2023-05-07T19:08:08;4.10;;;2.43;;
13564;SDS011;6854;48.096;11.278;2023-05-07T19:10:34;2.90;;;2.57;;
13564;SDS011;6854;48.096;11.278;2023-05-07T19:13:00;4.07;;;2.50;;
13564;SDS011;6854;48.096;11.278;2023-05-07T19:15:26;6.30;;;2.60;;
13564;SDS011;6854;48.096;11.278;2023-05-07T19:17:59;4.17;;;2.70;;
13564;SDS011;6854;48.096;11.278;2023-05-07T19:20:26;2.73;;;2.43;;
13564;SDS011;6854;48.096;11.278;2023-05-07T19:22:52;2.50;;;2.10;;
13564;SDS011;6854;48.096;11.278;2023-05-07T19:25:18;5.37;;;2.40;;
13564;SDS011;6854;48.096;11.278;2023-05-07T19:27:50;5.87;;;2.80;;
13564;SDS011;6854;48.096;11.278;2023-05-07T19:30:16;4.13;;;2.33;;
13564;SDS011;6854;48.096;11.278;2023-05-07T19:32:44;3.40;;;2.43;;
13564;SDS011;6854;48.096;11.278;2023-05-07T19:35:10;3.90;;;2.40;;
13564;SDS011;6854;48.096;11.278;2023-05-07T19:37:37;3.60;;;2.63;;
13564;SDS011;6854;48.096;11.278;2023-05-07T19:40:03;3.30;;;2.30;;
13564;SDS011;6854;48.096;11.278;2023-05-07T19:42:30;3.50;;;2.37;;
13564;SDS011;6854;48.096;11.278;2023-05-07T19:44:56;4.83;;;2.23;;
13564;SDS011;6854;48.096;11.278;2023-05-07T19:47:23;4.03;;;2.40;;
13564;SDS011;6854;48.096;11.278;2023-05-07T19:49:49;4.07;;;2.77;;
13564;SDS011;6854;48.096;11.278;2023-05-07T19:52:15;4.00;;;2.57;;
13564;SDS011;6854;48.096;11.278;2023-05-07T19:54:42;4.97;;;3.40;;
13564;SDS011;6854;48.096;11.278;2023-05-07T19:57:08;6.47;;;3.10;;
13564;SDS011;6854;48.096;11.278;2023-05-07T19:59:34;6.30;;;3.20;;
13564;SDS011;6854;48.096;11.278;2023-05-07T20:02:00;5.50;;;2.93;;
13564;SDS011;6854;48.096;11.278;2023-05-07T20:04:26;5.13;;;3.03;;
13564;SDS011;6854;48.096;11.278;2023-05-07T20:06:57;3.83;;;3.13;;
13564;SDS011;6854;48.096;11.278;2023-05-07T20:09:26;5.00;;;3.13;;
13564;SDS011;6854;48.096;11.278;2023-05-07T20:11:52;5.03;;;3.77;;
13564;SDS011;6854;48.096;11.278;2023-05-07T20:14:18;6.63;;;4.30;;
13564;SDS011;6854;48.096;11.278;2023-05-07T20:16:44;9.17;;;5.43;;
13564;SDS011;6854;48.096;11.278;2023-05-07T20:19:10;4.93;;;3.93;;
13564;SDS011;6854;48.096;11.278;2023-05-07T20:21:37;8.03;;;3.70;;
13564;SDS011;6854;48.096;11.278;2023-05-07T20:24:03;9.83;;;3.93;;
13564;SDS011;6854;48.096;11.278;2023-05-07T20:26:39;6.27;;;3.80;;
13564;SDS011;6854;48.096;11.278;2023-05-07T20:29:14;6.40;;;4.47;;
13564;SDS011;6854;48.096;11.278;2023-05-07T20:31:49;5.37;;;4.73;;
13564;SDS011;6854;48.096;11.278;2023-05-07T20:34:15;5.60;;;4.70;;
13564;SDS011;6854;48.096;11.278;2023-05-07T20:36:46;8.90;;;5.20;;
13564;SDS011;6854;48.096;11.278;2023-05-07T20:39:14;9.13;;;5.03;;
13564;SDS011;6854;48.096;11.278;2023-05-07T20:41:43;9.33;;;5.63;;
13564;SDS011;6854;48.096;11.278;2023-05-07T20:44:10;9.77;;;5.20;;
13564;SDS011;6854;48.096;11.278;2023-05-07T20:46:37;11.10;;;6.27;;
13564;SDS011;6854;48.096;11.278;2023-05-07T20:49:03;6.83;;;5.43;;
13564;SDS011;6854;48.096;11.278;2023-05-07T20:51:29;7.00;;;5.70;;
13564;SDS011;6854;48.096;11.278;2023-05-07T20:53:55;9.00;;;5.70;;
13564;SDS011;6854;48.096;11.278;2023-05-07T20:56:25;8.80;;;6.10;;
13564;SDS011;6854;48.096;11.278;2023-05-07T20:58:51;8.63;;;5.60;;
13564;SDS011;6854;48.096;11.278;2023-05-07T21:01:17;5.97;;;5.27;;
13564;SDS011;6854;48.096;11.278;2023-05-07T21:03:43;8.60;;;6.17;;
13564;SDS011;6854;48.096;11.278;2023-05-07T21:06:09;9.70;;;6.57;;
13564;SDS011;6854;48.096;11.278;2023-05-07T21:08:35;8.87;;;6.60;;
13564;SDS011;6854;48.096;11.278;2023-05-07T21:11:01;12.17;;;6.20;;
13564;SDS011;6854;48.096;11.278;2023-05-07T21:13:27;7.13;;;5.50;;
13564;SDS011;6854;48.096;11.278;2023-05-07T21:15:53;13.40;;;6.03;;
13564;SDS011;6854;48.096;11.278;2023-05-07T21:18:19;8.60;;;5.70;;
13564;SDS011;6854;48.096;11.278;2023-05-07T21:20:45;9.50;;;6.03;;
13564;SDS011;6854;48.096;11.278;2023-05-07T21:23:11;8.00;;;6.30;;
13564;SDS011;6854;48.096;11.278;2023-05-07T21:25:37;8.00;;;6.00;;
13564;SDS011;6854;48.096;11.278;2023-05-07T21:28:06;8.20;;;6.23;;
13564;SDS011;6854;48.096;11.278;2023-05-07T21:30:32;10.57;;;6.90;;
13564;SDS011;6854;48.096;11.278;2023-05-07T21:32:58;7.33;;;6.10;;
13564;SDS011;6854;48.096;11.278;2023-05-07T21:35:24;7.03;;;6.23;;
13564;SDS011;6854;48.096;11.278;2023-05-07T21:37:50;8.07;;;6.50;;
13564;SDS011;6854;48.096;11.278;2023-05-07T21:40:17;8.10;;;6.53;;
13564;SDS011;6854;48.096;11.278;2023-05-07T21:42:43;9.33;;;6.87;;
13564;SDS011;6854;48.096;11.278;2023-05-07T21:45:09;8.73;;;6.40;;
13564;SDS011;6854;48.096;11.278;2023-05-07T21:47:35;8.90;;;6.53;;
13564;SDS011;6854;48.096;11.278;2023-05-07T21:50:01;9.83;;;7.00;;
13564;SDS011;6854;48.096;11.278;2023-05-07T21:52:27;9.63;;;6.50;;
13564;SDS011;6854;48.096;11.278;2023-05-07T21:54:53;11.33;;;6.93;;
13564;SDS011;6854;48.096;11.278;2023-05-07T21:57:19;7.90;;;6.67;;
13564;SDS011;6854;48.096;11.278;2023-05-07T21:59:46;9.50;;;6.30;;
13564;SDS011;6854;48.096;11.278;2023-05-07T22:02:12;9.17;;;6.37;;
13564;SDS011;6854;48.096;11.278;2023-05-07T22:04:38;13.20;;;6.57;;
13564;SDS011;6854;48.096;11.278;2023-05-07T22:07:05;10.50;;;6.77;;
13564;SDS011;6854;48.096;11.278;2023-05-07T22:09:31;12.43;;;6.93;;
13564;SDS011;6854;48.096;11.278;2023-05-07T22:11:57;10.90;;;7.20;;
13564;SDS011;6854;48.096;11.278;2023-05-07T22:14:24;11.03;;;7.27;;
13564;SDS011;6854;48.096;11.278;2023-05-07T22:16:50;8.40;;;6.77;;
13564;SDS011;6854;48.096;11.278;2023-05-07T22:19:16;7.60;;;6.27;;
13564;SDS011;6854;48.096;11.278;2023-05-07T22:21:42;9.20;;;6.57;;
13564;SDS011;6854;48.096;11.278;2023-05-07T22:24:08;7.23;;;6.53;;
13564;SDS011;6854;48.096;11.278;2023-05-07T22:26:34;9.00;;;6.80;;
13564;SDS011;6854;48.096;11.278;2023-05-07T22:29:00;9.50;;;7.30;;
13564;SDS011;6854;48.096;11.278;2023-05-07T22:31:27;8.53;;;6.83;;
13564;SDS011;6854;48.096;11.278;2023-05-07T22:33:54;9.47;;;7.17;;
13564;SDS011;6854;48.096;11.278;2023-05-07T22:36:20;10.10;;;7.00;;
13564;SDS011;6854;48.096;11.278;2023-05-07T22:38:46;9.13;;;7.27;;
13564;SDS011;6854;48.096;11.278;2023-05-07T22:41:12;8.80;;;7.23;;
13564;SDS011;6854;48.096;11.278;2023-05-07T22:43:38;10.50;;;7.20;;
13564;SDS011;6854;48.096;11.278;2023-05-07T22:46:04;10.20;;;6.43;;
13564;SDS011;6854;48.096;11.278;2023-05-07T22:48:31;9.90;;;7.47;;
13564;SDS011;6854;48.096;11.278;2023-05-07T22:50:57;11.77;;;7.17;;
13564;SDS011;6854;48.096;11.278;2023-05-07T22:53:23;10.23;;;7.53;;
13564;SDS011;6854;48.096;11.278;2023-05-07T22:55:49;10.23;;;7.43;;
13564;SDS011;6854;48.096;11.278;2023-05-07T22:58:15;9.27;;;6.97;;
13564;SDS011;6854;48.096;11.278;2023-05-07T23:00:41;10.13;;;6.80;;
13564;SDS011;6854;48.096;11.278;2023-05-07T23:03:08;9.90;;;7.17;;
13564;SDS011;6854;48.096;11.278;2023-05-07T23:05:40;12.97;;;7.33;;
13564;SDS011;6854;48.096;11.278;2023-05-07T23:08:08;7.97;;;6.40;;
13564;SDS011;6854;48.096;11.278;2023-05-07T23:10:35;9.70;;;6.87;;
13564;SDS011;6854;48.096;11.278;2023-05-07T23:13:01;10.13;;;7.20;;
13564;SDS011;6854;48.096;11.278;2023-05-07T23:15:30;8.80;;;6.50;;
13564;SDS011;6854;48.096;11.278;2023-05-07T23:17:59;8.63;;;5.97;;
13564;SDS011;6854;48.096;11.278;2023-05-07T23:23:47;14.57;;;6.50;;
13564;SDS011;6854;48.096;11.278;2023-05-07T23:26:33;8.10;;;5.90;;
13564;SDS011;6854;48.096;11.278;2023-05-07T23:29:00;8.07;;;5.70;;
13564;SDS011;6854;48.096;11.278;2023-05-07T23:31:26;6.80;;;6.10;;
13564;SDS011;6854;48.096;11.278;2023-05-07T23:33:52;8.90;;;6.50;;
13564;SDS011;6854;48.096;11.278;2023-05-07T23:36:20;9.17;;;6.43;;
13564;SDS011;6854;48.096;11.278;2023-05-07T23:38:46;9.13;;;6.00;;
13564;SDS011;6854;48.096;11.278;2023-05-07T23:41:12;8.30;;;6.20;;
13564;SDS011;6854;48.096;11.278;2023-05-07T23:43:38;6.90;;;6.17;;
13564;SDS011;6854;48.096;11.278;2023-05-07T23:46:05;9.03;;;7.20;;
13564;SDS011;6854;48.096;11.278;2023-05-07T23:48:31;12.00;;;7.20;;
13564;SDS011;6854;48.096;11.278;2023-05-07T23:50:58;10.00;;;7.60;;
13564;SDS011;6854;48.096;11.278;2023-05-07T23:53:26;11.00;;;7.17;;
13564;SDS011;6854;48.096;11.278;2023-05-07T23:55:52;11.67;;;7.57;;
13564;SDS011;6854;48.096;11.278;2023-05-07T23:58:20;9.10;;;7.57;;
